CheckWX is a tool to help pilots better visualize weather data.  It is not intended as a substitute for an official pre-flight weather briefing.

00:33:02 UTC

KGDJ METAR
Granbury Regional Airport
Granbury, Texas, USA
Current

38 mins ago

KGDJ 222355Z AUTO 12009KT 10SM CLR 23/06 A3004 RMK AO2 T02300059 10260 20230
Observed
Mar-22 @ 23:55 UTC
Wind
  • 120° at 9 KTS
Visibility
10 SM
Flight Rules
VFR
Cloud Levels
  • Clear skies
Temperature
23°C / 73°F
Dewpoint
C / 43°F
Humidity
33%
Altimeter
30.04" Hg
Pressure
1017.32 hPa
Previous

58 mins ago

KGDJ 222335Z AUTO 12011G16KT 10SM CLR 24/06 A3003 RMK AO2 T02360055
Observed
Mar-22 @ 23:35 UTC
Wind
  • 120° at 11 KTS
  • Gusting to 16 KTS
Visibility
10 SM
Flight Rules
VFR
Cloud Levels
  • Clear skies
Temperature
24°C / 75°F
Dewpoint
C / 43°F
Humidity
31%
Altimeter
30.03" Hg
Pressure
1016.92 hPa
Previous

1 hour ago

KGDJ 222315Z AUTO 12010KT 10SM CLR 25/05 A3003 RMK AO2 T02450052
Observed
Mar-22 @ 23:15 UTC
Wind
  • 120° at 10 KTS
Visibility
10 SM
Flight Rules
VFR
Cloud Levels
  • Clear skies
Temperature
25°C / 77°F
Dewpoint
C / 41°F
Humidity
28%
Altimeter
30.03" Hg
Pressure
1016.92 hPa